Terminal Aerodrome Forecast
Issued by NWS Newport/Morehead City, NC

Home | Current Version | Previous Version | Text Only | Print | Product List | Glossary On
Versions: 1 2 3 4 5 6 7 8 9 10 11 12 13 14 15 16 17 18 19 20 21 22
000
FTUS42 KMHX 301754
TAFEWN
TAF
KEWN 301754Z 3018/3118 01007KT P6SM VCSH SCT023 BKN035
     FM302200 05008KT P6SM BKN040
     FM310800 VRB03KT 5SM BR SCT007 BKN020
     FM311300 VRB04KT P6SM BKN035=

USA.gov is the U.S. government's official web portal to all federal, state and local government web resources and services.